sensor_id;sensor_type;location;lat;lon;timestamp;P1;durP1;ratioP1;P2;durP2;ratioP2
81056;SDS011;70563;50.084;14.468;2023-06-14T00:01:34;5.65;;;3.25;;
81056;SDS011;70563;50.084;14.468;2023-06-14T00:04:00;6.28;;;3.50;;
81056;SDS011;70563;50.084;14.468;2023-06-14T00:06:26;6.15;;;3.70;;
81056;SDS011;70563;50.084;14.468;2023-06-14T00:08:53;8.07;;;3.60;;
81056;SDS011;70563;50.084;14.468;2023-06-14T00:11:19;5.93;;;3.60;;
81056;SDS011;70563;50.084;14.468;2023-06-14T00:13:45;4.57;;;3.65;;
81056;SDS011;70563;50.084;14.468;2023-06-14T00:16:11;4.82;;;3.70;;
81056;SDS011;70563;50.084;14.468;2023-06-14T00:18:37;7.78;;;3.78;;
81056;SDS011;70563;50.084;14.468;2023-06-14T00:21:03;5.40;;;3.55;;
81056;SDS011;70563;50.084;14.468;2023-06-14T00:23:29;7.05;;;3.97;;
81056;SDS011;70563;50.084;14.468;2023-06-14T00:25:54;7.13;;;4.30;;
81056;SDS011;70563;50.084;14.468;2023-06-14T00:28:20;6.15;;;3.85;;
81056;SDS011;70563;50.084;14.468;2023-06-14T00:30:45;5.80;;;3.90;;
81056;SDS011;70563;50.084;14.468;2023-06-14T00:33:11;5.57;;;3.53;;
81056;SDS011;70563;50.084;14.468;2023-06-14T00:35:37;5.40;;;3.65;;
81056;SDS011;70563;50.084;14.468;2023-06-14T00:38:03;4.80;;;3.42;;
81056;SDS011;70563;50.084;14.468;2023-06-14T00:40:28;5.43;;;3.40;;
81056;SDS011;70563;50.084;14.468;2023-06-14T00:42:53;5.93;;;3.38;;
81056;SDS011;70563;50.084;14.468;2023-06-14T00:45:19;5.43;;;3.90;;
81056;SDS011;70563;50.084;14.468;2023-06-14T00:47:45;5.03;;;3.88;;
81056;SDS011;70563;50.084;14.468;2023-06-14T00:50:11;4.22;;;3.50;;
81056;SDS011;70563;50.084;14.468;2023-06-14T00:52:38;7.13;;;3.75;;
81056;SDS011;70563;50.084;14.468;2023-06-14T00:55:05;6.28;;;3.63;;
81056;SDS011;70563;50.084;14.468;2023-06-14T00:57:31;5.45;;;4.13;;
81056;SDS011;70563;50.084;14.468;2023-06-14T00:59:57;4.75;;;3.10;;
81056;SDS011;70563;50.084;14.468;2023-06-14T01:02:22;3.58;;;3.08;;
81056;SDS011;70563;50.084;14.468;2023-06-14T01:04:49;9.00;;;3.22;;
81056;SDS011;70563;50.084;14.468;2023-06-14T01:10:14;7.40;;;3.35;;
81056;SDS011;70563;50.084;14.468;2023-06-14T01:15:18;5.77;;;2.83;;
81056;SDS011;70563;50.084;14.468;2023-06-14T01:17:46;4.25;;;2.92;;
81056;SDS011;70563;50.084;14.468;2023-06-14T01:20:16;4.88;;;3.22;;
81056;SDS011;70563;50.084;14.468;2023-06-14T01:22:51;5.35;;;3.92;;
81056;SDS011;70563;50.084;14.468;2023-06-14T01:25:18;4.03;;;3.17;;
81056;SDS011;70563;50.084;14.468;2023-06-14T01:27:58;5.03;;;3.40;;
81056;SDS011;70563;50.084;14.468;2023-06-14T01:30:26;5.97;;;3.85;;
81056;SDS011;70563;50.084;14.468;2023-06-14T01:32:53;5.60;;;3.78;;
81056;SDS011;70563;50.084;14.468;2023-06-14T01:35:20;5.93;;;3.20;;
81056;SDS011;70563;50.084;14.468;2023-06-14T01:37:46;5.05;;;3.75;;
81056;SDS011;70563;50.084;14.468;2023-06-14T01:40:13;5.13;;;4.20;;
81056;SDS011;70563;50.084;14.468;2023-06-14T01:42:40;5.15;;;3.90;;
81056;SDS011;70563;50.084;14.468;2023-06-14T01:45:06;7.05;;;4.20;;
81056;SDS011;70563;50.084;14.468;2023-06-14T01:47:32;6.15;;;4.30;;
81056;SDS011;70563;50.084;14.468;2023-06-14T01:49:59;4.25;;;3.70;;
81056;SDS011;70563;50.084;14.468;2023-06-14T01:52:24;4.57;;;3.95;;
81056;SDS011;70563;50.084;14.468;2023-06-14T01:54:50;5.72;;;3.90;;
81056;SDS011;70563;50.084;14.468;2023-06-14T01:57:16;5.45;;;4.35;;
81056;SDS011;70563;50.084;14.468;2023-06-14T01:59:41;7.45;;;4.05;;
81056;SDS011;70563;50.084;14.468;2023-06-14T02:02:07;7.68;;;4.43;;
81056;SDS011;70563;50.084;14.468;2023-06-14T02:04:32;7.07;;;4.55;;
81056;SDS011;70563;50.084;14.468;2023-06-14T02:06:58;6.95;;;4.53;;
81056;SDS011;70563;50.084;14.468;2023-06-14T02:09:23;6.38;;;4.20;;
81056;SDS011;70563;50.084;14.468;2023-06-14T02:11:49;8.77;;;5.40;;
81056;SDS011;70563;50.084;14.468;2023-06-14T02:14:14;5.00;;;4.45;;
81056;SDS011;70563;50.084;14.468;2023-06-14T02:16:42;5.78;;;3.88;;
81056;SDS011;70563;50.084;14.468;2023-06-14T02:19:13;6.13;;;4.28;;
81056;SDS011;70563;50.084;14.468;2023-06-14T02:21:40;7.25;;;4.80;;
81056;SDS011;70563;50.084;14.468;2023-06-14T02:24:06;6.35;;;4.70;;
81056;SDS011;70563;50.084;14.468;2023-06-14T02:26:31;6.57;;;4.45;;
81056;SDS011;70563;50.084;14.468;2023-06-14T02:28:57;7.05;;;4.40;;
81056;SDS011;70563;50.084;14.468;2023-06-14T02:31:23;8.82;;;4.57;;
81056;SDS011;70563;50.084;14.468;2023-06-14T02:33:49;8.10;;;5.05;;
81056;SDS011;70563;50.084;14.468;2023-06-14T02:36:14;6.22;;;4.47;;
81056;SDS011;70563;50.084;14.468;2023-06-14T02:38:40;6.35;;;4.68;;
81056;SDS011;70563;50.084;14.468;2023-06-14T02:41:06;6.82;;;4.90;;
81056;SDS011;70563;50.084;14.468;2023-06-14T02:43:31;9.27;;;5.28;;
81056;SDS011;70563;50.084;14.468;2023-06-14T02:45:56;10.32;;;5.13;;
81056;SDS011;70563;50.084;14.468;2023-06-14T02:48:22;7.55;;;4.50;;
81056;SDS011;70563;50.084;14.468;2023-06-14T02:50:47;7.75;;;5.55;;
81056;SDS011;70563;50.084;14.468;2023-06-14T02:53:12;9.23;;;4.60;;
81056;SDS011;70563;50.084;14.468;2023-06-14T02:55:38;6.88;;;5.10;;
81056;SDS011;70563;50.084;14.468;2023-06-14T02:58:04;10.63;;;4.90;;
81056;SDS011;70563;50.084;14.468;2023-06-14T03:00:30;6.45;;;4.85;;
81056;SDS011;70563;50.084;14.468;2023-06-14T03:02:56;9.18;;;5.10;;
81056;SDS011;70563;50.084;14.468;2023-06-14T03:05:21;8.43;;;5.00;;
81056;SDS011;70563;50.084;14.468;2023-06-14T03:07:47;7.13;;;5.63;;
81056;SDS011;70563;50.084;14.468;2023-06-14T03:10:12;6.55;;;4.65;;
81056;SDS011;70563;50.084;14.468;2023-06-14T03:12:38;8.15;;;5.10;;
81056;SDS011;70563;50.084;14.468;2023-06-14T03:15:04;6.00;;;4.82;;
81056;SDS011;70563;50.084;14.468;2023-06-14T03:17:30;9.18;;;5.00;;
81056;SDS011;70563;50.084;14.468;2023-06-14T03:19:58;7.63;;;5.35;;
81056;SDS011;70563;50.084;14.468;2023-06-14T03:22:27;7.75;;;4.90;;
81056;SDS011;70563;50.084;14.468;2023-06-14T03:24:53;8.80;;;5.53;;
81056;SDS011;70563;50.084;14.468;2023-06-14T03:27:19;7.30;;;5.35;;
81056;SDS011;70563;50.084;14.468;2023-06-14T03:29:44;5.85;;;4.65;;
81056;SDS011;70563;50.084;14.468;2023-06-14T03:32:10;6.60;;;4.63;;
81056;SDS011;70563;50.084;14.468;2023-06-14T03:34:35;7.55;;;4.97;;
81056;SDS011;70563;50.084;14.468;2023-06-14T03:37:03;6.82;;;4.65;;
81056;SDS011;70563;50.084;14.468;2023-06-14T03:39:28;6.80;;;5.03;;
81056;SDS011;70563;50.084;14.468;2023-06-14T03:41:54;7.57;;;5.50;;
81056;SDS011;70563;50.084;14.468;2023-06-14T03:44:20;6.13;;;5.03;;
81056;SDS011;70563;50.084;14.468;2023-06-14T03:46:46;7.30;;;5.10;;
81056;SDS011;70563;50.084;14.468;2023-06-14T03:49:12;6.68;;;4.97;;
81056;SDS011;70563;50.084;14.468;2023-06-14T03:51:38;8.63;;;5.05;;
81056;SDS011;70563;50.084;14.468;2023-06-14T03:54:04;9.65;;;5.38;;
81056;SDS011;70563;50.084;14.468;2023-06-14T03:56:30;7.18;;;5.88;;
81056;SDS011;70563;50.084;14.468;2023-06-14T03:58:55;8.15;;;5.63;;
81056;SDS011;70563;50.084;14.468;2023-06-14T04:01:21;7.68;;;4.85;;
81056;SDS011;70563;50.084;14.468;2023-06-14T04:03:52;9.55;;;5.82;;
81056;SDS011;70563;50.084;14.468;2023-06-14T04:06:17;6.13;;;4.75;;
81056;SDS011;70563;50.084;14.468;2023-06-14T04:08:44;7.85;;;5.00;;
81056;SDS011;70563;50.084;14.468;2023-06-14T04:11:10;10.15;;;5.50;;
81056;SDS011;70563;50.084;14.468;2023-06-14T04:13:36;7.45;;;4.50;;
81056;SDS011;70563;50.084;14.468;2023-06-14T04:16:02;8.40;;;4.63;;
81056;SDS011;70563;50.084;14.468;2023-06-14T04:18:28;9.98;;;4.78;;
81056;SDS011;70563;50.084;14.468;2023-06-14T04:20:53;6.28;;;4.18;;
81056;SDS011;70563;50.084;14.468;2023-06-14T04:23:19;5.88;;;4.13;;
81056;SDS011;70563;50.084;14.468;2023-06-14T04:25:44;6.53;;;4.40;;
81056;SDS011;70563;50.084;14.468;2023-06-14T04:28:13;9.13;;;4.47;;
81056;SDS011;70563;50.084;14.468;2023-06-14T04:30:43;7.00;;;5.57;;
81056;SDS011;70563;50.084;14.468;2023-06-14T04:33:09;7.47;;;4.68;;
81056;SDS011;70563;50.084;14.468;2023-06-14T04:35:35;5.10;;;4.53;;
81056;SDS011;70563;50.084;14.468;2023-06-14T04:38:02;7.13;;;4.50;;
81056;SDS011;70563;50.084;14.468;2023-06-14T04:40:30;6.45;;;4.47;;
81056;SDS011;70563;50.084;14.468;2023-06-14T04:42:56;12.73;;;5.32;;
81056;SDS011;70563;50.084;14.468;2023-06-14T04:45:22;9.95;;;4.97;;
81056;SDS011;70563;50.084;14.468;2023-06-14T04:47:48;8.50;;;4.63;;
81056;SDS011;70563;50.084;14.468;2023-06-14T04:50:15;7.82;;;4.35;;
81056;SDS011;70563;50.084;14.468;2023-06-14T04:52:42;7.53;;;4.43;;
81056;SDS011;70563;50.084;14.468;2023-06-14T04:55:08;6.28;;;4.50;;
81056;SDS011;70563;50.084;14.468;2023-06-14T04:57:33;8.18;;;4.55;;
81056;SDS011;70563;50.084;14.468;2023-06-14T05:00:00;6.95;;;5.05;;
81056;SDS011;70563;50.084;14.468;2023-06-14T05:02:29;7.45;;;4.78;;
81056;SDS011;70563;50.084;14.468;2023-06-14T05:04:55;6.78;;;4.97;;
81056;SDS011;70563;50.084;14.468;2023-06-14T05:07:22;5.82;;;4.60;;
81056;SDS011;70563;50.084;14.468;2023-06-14T05:09:49;8.52;;;4.75;;
81056;SDS011;70563;50.084;14.468;2023-06-14T05:12:14;7.47;;;5.10;;
81056;SDS011;70563;50.084;14.468;2023-06-14T05:14:43;9.30;;;5.10;;
81056;SDS011;70563;50.084;14.468;2023-06-14T05:17:09;7.32;;;5.30;;
81056;SDS011;70563;50.084;14.468;2023-06-14T05:19:34;6.78;;;4.85;;
81056;SDS011;70563;50.084;14.468;2023-06-14T05:22:00;7.32;;;4.53;;
81056;SDS011;70563;50.084;14.468;2023-06-14T05:24:28;5.72;;;4.55;;
81056;SDS011;70563;50.084;14.468;2023-06-14T05:26:55;7.25;;;4.28;;
81056;SDS011;70563;50.084;14.468;2023-06-14T05:29:21;6.95;;;4.25;;
81056;SDS011;70563;50.084;14.468;2023-06-14T05:31:46;9.00;;;4.22;;
81056;SDS011;70563;50.084;14.468;2023-06-14T05:34:12;8.23;;;4.40;;
81056;SDS011;70563;50.084;14.468;2023-06-14T05:36:37;9.98;;;4.38;;
81056;SDS011;70563;50.084;14.468;2023-06-14T05:39:03;5.55;;;3.88;;
81056;SDS011;70563;50.084;14.468;2023-06-14T05:41:29;5.75;;;3.95;;
81056;SDS011;70563;50.084;14.468;2023-06-14T05:43:55;6.22;;;4.10;;
81056;SDS011;70563;50.084;14.468;2023-06-14T05:46:21;7.90;;;4.20;;
81056;SDS011;70563;50.084;14.468;2023-06-14T05:48:50;7.03;;;4.28;;
81056;SDS011;70563;50.084;14.468;2023-06-14T05:51:16;5.22;;;4.25;;
81056;SDS011;70563;50.084;14.468;2023-06-14T05:53:44;6.68;;;3.92;;
81056;SDS011;70563;50.084;14.468;2023-06-14T05:56:11;5.53;;;3.88;;
81056;SDS011;70563;50.084;14.468;2023-06-14T05:58:36;6.93;;;4.05;;
81056;SDS011;70563;50.084;14.468;2023-06-14T06:01:02;7.50;;;3.92;;
81056;SDS011;70563;50.084;14.468;2023-06-14T06:03:27;6.38;;;3.72;;
81056;SDS011;70563;50.084;14.468;2023-06-14T06:05:54;6.55;;;3.42;;
81056;SDS011;70563;50.084;14.468;2023-06-14T06:08:20;6.25;;;3.85;;
81056;SDS011;70563;50.084;14.468;2023-06-14T06:10:46;6.63;;;4.10;;
81056;SDS011;70563;50.084;14.468;2023-06-14T06:13:11;6.70;;;3.75;;
81056;SDS011;70563;50.084;14.468;2023-06-14T06:15:36;5.60;;;4.03;;
81056;SDS011;70563;50.084;14.468;2023-06-14T06:18:02;5.20;;;4.13;;
81056;SDS011;70563;50.084;14.468;2023-06-14T06:20:28;6.55;;;4.35;;
81056;SDS011;70563;50.084;14.468;2023-06-14T06:22:56;7.22;;;4.13;;
81056;SDS011;70563;50.084;14.468;2023-06-14T06:25:22;5.43;;;3.45;;
81056;SDS011;70563;50.084;14.468;2023-06-14T06:27:51;6.65;;;4.00;;
81056;SDS011;70563;50.084;14.468;2023-06-14T06:30:17;7.13;;;4.00;;
81056;SDS011;70563;50.084;14.468;2023-06-14T06:32:43;6.15;;;3.70;;
81056;SDS011;70563;50.084;14.468;2023-06-14T06:35:08;8.93;;;3.97;;
81056;SDS011;70563;50.084;14.468;2023-06-14T06:37:35;7.15;;;4.20;;
81056;SDS011;70563;50.084;14.468;2023-06-14T06:40:01;5.28;;;4.10;;
81056;SDS011;70563;50.084;14.468;2023-06-14T06:42:28;8.43;;;4.10;;
81056;SDS011;70563;50.084;14.468;2023-06-14T06:44:54;6.45;;;3.85;;
81056;SDS011;70563;50.084;14.468;2023-06-14T06:47:19;7.78;;;3.83;;
81056;SDS011;70563;50.084;14.468;2023-06-14T06:49:45;7.00;;;4.38;;
81056;SDS011;70563;50.084;14.468;2023-06-14T06:52:10;5.88;;;3.75;;
81056;SDS011;70563;50.084;14.468;2023-06-14T06:54:36;7.50;;;4.07;;
81056;SDS011;70563;50.084;14.468;2023-06-14T06:57:01;6.43;;;4.15;;
81056;SDS011;70563;50.084;14.468;2023-06-14T06:59:27;6.53;;;3.95;;
81056;SDS011;70563;50.084;14.468;2023-06-14T07:01:52;5.90;;;3.97;;
81056;SDS011;70563;50.084;14.468;2023-06-14T07:04:17;6.40;;;4.53;;
81056;SDS011;70563;50.084;14.468;2023-06-14T07:06:43;6.47;;;4.63;;
81056;SDS011;70563;50.084;14.468;2023-06-14T07:09:09;7.65;;;3.80;;
81056;SDS011;70563;50.084;14.468;2023-06-14T07:11:38;7.55;;;4.78;;
81056;SDS011;70563;50.084;14.468;2023-06-14T07:14:04;6.18;;;4.50;;
81056;SDS011;70563;50.084;14.468;2023-06-14T07:16:30;7.18;;;4.28;;
81056;SDS011;70563;50.084;14.468;2023-06-14T07:18:55;5.10;;;3.83;;
81056;SDS011;70563;50.084;14.468;2023-06-14T07:21:20;5.78;;;4.97;;
81056;SDS011;70563;50.084;14.468;2023-06-14T07:23:46;7.05;;;4.03;;
81056;SDS011;70563;50.084;14.468;2023-06-14T07:26:12;4.93;;;3.92;;
81056;SDS011;70563;50.084;14.468;2023-06-14T07:28:37;6.38;;;4.20;;
81056;SDS011;70563;50.084;14.468;2023-06-14T07:31:03;9.90;;;5.00;;
81056;SDS011;70563;50.084;14.468;2023-06-14T07:33:28;9.90;;;3.80;;
81056;SDS011;70563;50.084;14.468;2023-06-14T07:35:53;10.45;;;5.38;;
81056;SDS011;70563;50.084;14.468;2023-06-14T07:38:19;7.15;;;4.43;;
81056;SDS011;70563;50.084;14.468;2023-06-14T07:40:44;4.45;;;4.00;;
81056;SDS011;70563;50.084;14.468;2023-06-14T07:43:10;7.03;;;4.28;;
81056;SDS011;70563;50.084;14.468;2023-06-14T07:45:36;6.05;;;3.92;;
81056;SDS011;70563;50.084;14.468;2023-06-14T07:48:02;6.80;;;3.72;;
81056;SDS011;70563;50.084;14.468;2023-06-14T07:50:27;6.70;;;4.32;;
81056;SDS011;70563;50.084;14.468;2023-06-14T07:52:54;6.50;;;3.97;;
81056;SDS011;70563;50.084;14.468;2023-06-14T07:55:19;6.40;;;3.67;;
81056;SDS011;70563;50.084;14.468;2023-06-14T07:57:45;4.53;;;3.55;;
81056;SDS011;70563;50.084;14.468;2023-06-14T08:00:11;4.55;;;3.42;;
81056;SDS011;70563;50.084;14.468;2023-06-14T08:02:40;7.50;;;4.05;;
81056;SDS011;70563;50.084;14.468;2023-06-14T08:05:06;5.53;;;4.35;;
81056;SDS011;70563;50.084;14.468;2023-06-14T08:07:33;4.38;;;3.85;;
81056;SDS011;70563;50.084;14.468;2023-06-14T08:09:58;10.48;;;4.13;;
81056;SDS011;70563;50.084;14.468;2023-06-14T08:12:23;9.45;;;4.15;;
81056;SDS011;70563;50.084;14.468;2023-06-14T08:14:49;7.15;;;3.30;;
81056;SDS011;70563;50.084;14.468;2023-06-14T08:17:14;4.53;;;3.47;;
81056;SDS011;70563;50.084;14.468;2023-06-14T08:19:40;3.35;;;2.78;;
81056;SDS011;70563;50.084;14.468;2023-06-14T08:22:06;4.35;;;3.63;;
81056;SDS011;70563;50.084;14.468;2023-06-14T08:24:31;5.03;;;3.40;;
81056;SDS011;70563;50.084;14.468;2023-06-14T08:26:57;4.80;;;3.25;;
81056;SDS011;70563;50.084;14.468;2023-06-14T08:29:26;4.57;;;3.25;;
81056;SDS011;70563;50.084;14.468;2023-06-14T08:31:54;6.25;;;3.70;;
81056;SDS011;70563;50.084;14.468;2023-06-14T08:34:20;4.07;;;3.35;;
81056;SDS011;70563;50.084;14.468;2023-06-14T08:36:45;4.90;;;3.47;;
81056;SDS011;70563;50.084;14.468;2023-06-14T08:39:11;10.50;;;3.53;;
81056;SDS011;70563;50.084;14.468;2023-06-14T08:41:36;5.85;;;3.92;;
81056;SDS011;70563;50.084;14.468;2023-06-14T08:44:02;6.07;;;3.33;;
81056;SDS011;70563;50.084;14.468;2023-06-14T08:46:29;4.22;;;3.35;;
81056;SDS011;70563;50.084;14.468;2023-06-14T08:48:58;5.28;;;3.50;;
81056;SDS011;70563;50.084;14.468;2023-06-14T08:51:26;7.57;;;4.35;;
81056;SDS011;70563;50.084;14.468;2023-06-14T08:53:59;6.30;;;3.40;;
81056;SDS011;70563;50.084;14.468;2023-06-14T08:56:26;5.10;;;3.17;;
81056;SDS011;70563;50.084;14.468;2023-06-14T08:58:54;4.85;;;3.55;;
81056;SDS011;70563;50.084;14.468;2023-06-14T09:01:20;5.95;;;3.63;;
81056;SDS011;70563;50.084;14.468;2023-06-14T09:03:47;4.97;;;4.07;;
81056;SDS011;70563;50.084;14.468;2023-06-14T09:06:13;3.97;;;3.25;;
81056;SDS011;70563;50.084;14.468;2023-06-14T09:08:41;5.70;;;3.33;;
81056;SDS011;70563;50.084;14.468;2023-06-14T09:11:11;5.25;;;3.70;;
81056;SDS011;70563;50.084;14.468;2023-06-14T09:13:40;5.28;;;3.60;;
81056;SDS011;70563;50.084;14.468;2023-06-14T09:16:06;3.97;;;3.53;;
81056;SDS011;70563;50.084;14.468;2023-06-14T09:18:36;4.05;;;3.47;;
81056;SDS011;70563;50.084;14.468;2023-06-14T09:21:03;7.50;;;3.00;;
81056;SDS011;70563;50.084;14.468;2023-06-14T09:23:33;6.88;;;3.78;;
81056;SDS011;70563;50.084;14.468;2023-06-14T09:26:06;4.15;;;3.38;;
81056;SDS011;70563;50.084;14.468;2023-06-14T09:28:36;3.58;;;3.28;;
81056;SDS011;70563;50.084;14.468;2023-06-14T09:31:05;6.75;;;3.50;;
81056;SDS011;70563;50.084;14.468;2023-06-14T09:33:33;8.65;;;3.45;;
81056;SDS011;70563;50.084;14.468;2023-06-14T09:35:59;7.75;;;3.67;;
81056;SDS011;70563;50.084;14.468;2023-06-14T09:38:24;5.88;;;4.38;;
81056;SDS011;70563;50.084;14.468;2023-06-14T09:40:50;6.50;;;4.03;;
81056;SDS011;70563;50.084;14.468;2023-06-14T09:43:15;7.10;;;4.00;;
81056;SDS011;70563;50.084;14.468;2023-06-14T09:45:43;5.63;;;3.15;;
81056;SDS011;70563;50.084;14.468;2023-06-14T09:48:13;7.88;;;4.15;;
81056;SDS011;70563;50.084;14.468;2023-06-14T09:50:42;7.55;;;3.33;;
81056;SDS011;70563;50.084;14.468;2023-06-14T09:53:10;5.15;;;3.35;;
81056;SDS011;70563;50.084;14.468;2023-06-14T09:55:37;7.47;;;3.53;;
81056;SDS011;70563;50.084;14.468;2023-06-14T09:58:05;5.00;;;3.60;;
81056;SDS011;70563;50.084;14.468;2023-06-14T10:00:32;6.88;;;3.47;;
81056;SDS011;70563;50.084;14.468;2023-06-14T10:03:00;4.65;;;3.25;;
81056;SDS011;70563;50.084;14.468;2023-06-14T10:05:31;4.43;;;2.92;;
81056;SDS011;70563;50.084;14.468;2023-06-14T10:08:03;4.38;;;2.95;;
81056;SDS011;70563;50.084;14.468;2023-06-14T10:10:30;4.75;;;3.08;;
81056;SDS011;70563;50.084;14.468;2023-06-14T10:12:56;3.63;;;2.80;;
81056;SDS011;70563;50.084;14.468;2023-06-14T10:15:46;8.25;;;3.65;;
81056;SDS011;70563;50.084;14.468;2023-06-14T10:20:55;4.35;;;3.33;;
81056;SDS011;70563;50.084;14.468;2023-06-14T10:23:30;7.15;;;3.20;;
81056;SDS011;70563;50.084;14.468;2023-06-14T10:26:00;4.82;;;3.35;;
81056;SDS011;70563;50.084;14.468;2023-06-14T10:28:26;4.97;;;4.47;;
81056;SDS011;70563;50.084;14.468;2023-06-14T10:33:34;3.63;;;2.60;;
81056;SDS011;70563;50.084;14.468;2023-06-14T10:36:27;3.22;;;2.90;;
81056;SDS011;70563;50.084;14.468;2023-06-14T10:38:59;3.97;;;2.60;;
81056;SDS011;70563;50.084;14.468;2023-06-14T10:41:55;3.63;;;3.22;;
81056;SDS011;70563;50.084;14.468;2023-06-14T10:46:53;5.88;;;3.10;;
81056;SDS011;70563;50.084;14.468;2023-06-14T10:49:20;3.80;;;2.92;;
81056;SDS011;70563;50.084;14.468;2023-06-14T10:52:02;3.90;;;3.30;;
81056;SDS011;70563;50.084;14.468;2023-06-14T10:54:28;6.80;;;3.17;;
81056;SDS011;70563;50.084;14.468;2023-06-14T10:56:53;4.80;;;3.20;;
81056;SDS011;70563;50.084;14.468;2023-06-14T10:59:20;5.70;;;3.25;;
81056;SDS011;70563;50.084;14.468;2023-06-14T11:01:51;8.02;;;3.13;;
81056;SDS011;70563;50.084;14.468;2023-06-14T11:05:08;7.70;;;3.17;;
81056;SDS011;70563;50.084;14.468;2023-06-14T11:13:03;10.15;;;3.80;;
81056;SDS011;70563;50.084;14.468;2023-06-14T11:15:29;6.38;;;3.20;;
81056;SDS011;70563;50.084;14.468;2023-06-14T11:17:56;7.30;;;3.92;;
81056;SDS011;70563;50.084;14.468;2023-06-14T11:20:26;5.00;;;3.40;;
81056;SDS011;70563;50.084;14.468;2023-06-14T11:22:53;4.43;;;3.13;;
81056;SDS011;70563;50.084;14.468;2023-06-14T11:25:19;4.35;;;2.88;;
81056;SDS011;70563;50.084;14.468;2023-06-14T11:27:44;6.57;;;3.47;;
81056;SDS011;70563;50.084;14.468;2023-06-14T11:30:11;3.10;;;2.80;;
81056;SDS011;70563;50.084;14.468;2023-06-14T11:32:38;3.78;;;2.70;;
81056;SDS011;70563;50.084;14.468;2023-06-14T11:35:04;3.38;;;2.97;;
81056;SDS011;70563;50.084;14.468;2023-06-14T11:37:30;5.57;;;3.28;;
81056;SDS011;70563;50.084;14.468;2023-06-14T11:39:58;5.65;;;3.70;;
81056;SDS011;70563;50.084;14.468;2023-06-14T11:42:24;5.32;;;3.55;;
81056;SDS011;70563;50.084;14.468;2023-06-14T11:44:53;6.50;;;3.50;;
81056;SDS011;70563;50.084;14.468;2023-06-14T11:47:19;5.68;;;3.60;;
81056;SDS011;70563;50.084;14.468;2023-06-14T11:49:44;4.55;;;3.78;;
81056;SDS011;70563;50.084;14.468;2023-06-14T11:52:10;7.25;;;4.28;;
81056;SDS011;70563;50.084;14.468;2023-06-14T11:54:36;7.47;;;3.90;;
81056;SDS011;70563;50.084;14.468;2023-06-14T11:57:02;8.63;;;3.65;;
81056;SDS011;70563;50.084;14.468;2023-06-14T11:59:29;6.78;;;3.67;;
81056;SDS011;70563;50.084;14.468;2023-06-14T12:01:56;4.68;;;3.50;;
81056;SDS011;70563;50.084;14.468;2023-06-14T12:04:23;4.57;;;3.58;;
81056;SDS011;70563;50.084;14.468;2023-06-14T12:06:50;5.53;;;3.38;;
81056;SDS011;70563;50.084;14.468;2023-06-14T12:09:18;3.42;;;2.60;;
81056;SDS011;70563;50.084;14.468;2023-06-14T12:11:44;4.50;;;3.80;;
81056;SDS011;70563;50.084;14.468;2023-06-14T12:14:10;4.60;;;3.67;;
81056;SDS011;70563;50.084;14.468;2023-06-14T12:16:39;6.95;;;4.18;;
81056;SDS011;70563;50.084;14.468;2023-06-14T12:21:39;2.92;;;2.63;;
81056;SDS011;70563;50.084;14.468;2023-06-14T12:24:05;4.35;;;2.90;;
81056;SDS011;70563;50.084;14.468;2023-06-14T12:26:32;5.35;;;2.75;;
81056;SDS011;70563;50.084;14.468;2023-06-14T12:28:57;7.63;;;3.08;;
81056;SDS011;70563;50.084;14.468;2023-06-14T12:31:23;7.18;;;3.50;;
81056;SDS011;70563;50.084;14.468;2023-06-14T12:33:49;4.18;;;2.50;;
81056;SDS011;70563;50.084;14.468;2023-06-14T12:36:15;7.55;;;3.40;;
81056;SDS011;70563;50.084;14.468;2023-06-14T12:38:40;7.65;;;2.72;;
81056;SDS011;70563;50.084;14.468;2023-06-14T12:41:06;5.95;;;2.55;;
81056;SDS011;70563;50.084;14.468;2023-06-14T12:43:32;10.88;;;3.55;;
81056;SDS011;70563;50.084;14.468;2023-06-14T12:45:58;8.70;;;4.15;;
81056;SDS011;70563;50.084;14.468;2023-06-14T12:48:24;3.25;;;2.90;;
81056;SDS011;70563;50.084;14.468;2023-06-14T12:50:52;4.57;;;2.78;;
81056;SDS011;70563;50.084;14.468;2023-06-14T12:53:17;4.28;;;2.95;;
81056;SDS011;70563;50.084;14.468;2023-06-14T12:55:43;5.85;;;3.17;;
81056;SDS011;70563;50.084;14.468;2023-06-14T12:58:08;5.43;;;3.63;;
81056;SDS011;70563;50.084;14.468;2023-06-14T13:00:33;5.13;;;3.70;;
81056;SDS011;70563;50.084;14.468;2023-06-14T13:03:00;6.63;;;3.22;;
81056;SDS011;70563;50.084;14.468;2023-06-14T13:05:25;5.68;;;3.47;;
81056;SDS011;70563;50.084;14.468;2023-06-14T13:07:50;5.40;;;3.17;;
81056;SDS011;70563;50.084;14.468;2023-06-14T13:10:16;4.78;;;3.00;;
81056;SDS011;70563;50.084;14.468;2023-06-14T13:12:42;4.45;;;3.33;;
81056;SDS011;70563;50.084;14.468;2023-06-14T13:15:08;4.78;;;3.60;;
81056;SDS011;70563;50.084;14.468;2023-06-14T13:17:34;5.55;;;3.50;;
81056;SDS011;70563;50.084;14.468;2023-06-14T13:22:32;5.55;;;3.00;;
81056;SDS011;70563;50.084;14.468;2023-06-14T13:24:58;3.78;;;2.40;;
81056;SDS011;70563;50.084;14.468;2023-06-14T13:27:23;4.03;;;3.08;;
81056;SDS011;70563;50.084;14.468;2023-06-14T13:29:49;3.35;;;2.58;;
81056;SDS011;70563;50.084;14.468;2023-06-14T13:32:15;5.35;;;3.17;;
81056;SDS011;70563;50.084;14.468;2023-06-14T13:34:40;6.97;;;3.15;;
81056;SDS011;70563;50.084;14.468;2023-06-14T13:37:05;3.47;;;3.00;;
81056;SDS011;70563;50.084;14.468;2023-06-14T13:39:31;8.90;;;3.53;;
81056;SDS011;70563;50.084;14.468;2023-06-14T13:41:56;5.25;;;3.33;;
81056;SDS011;70563;50.084;14.468;2023-06-14T13:44:21;7.65;;;3.70;;
81056;SDS011;70563;50.084;14.468;2023-06-14T13:46:47;3.60;;;2.35;;
81056;SDS011;70563;50.084;14.468;2023-06-14T13:49:12;8.10;;;2.72;;
81056;SDS011;70563;50.084;14.468;2023-06-14T13:51:38;5.60;;;3.08;;
81056;SDS011;70563;50.084;14.468;2023-06-14T13:54:04;6.47;;;3.03;;
81056;SDS011;70563;50.084;14.468;2023-06-14T13:56:29;3.92;;;3.00;;
81056;SDS011;70563;50.084;14.468;2023-06-14T13:58:55;6.28;;;2.70;;
81056;SDS011;70563;50.084;14.468;2023-06-14T14:01:21;7.57;;;2.58;;
81056;SDS011;70563;50.084;14.468;2023-06-14T14:03:48;6.45;;;3.28;;
81056;SDS011;70563;50.084;14.468;2023-06-14T14:06:14;4.20;;;2.53;;
81056;SDS011;70563;50.084;14.468;2023-06-14T14:08:40;5.10;;;2.95;;
81056;SDS011;70563;50.084;14.468;2023-06-14T14:11:06;8.63;;;3.30;;
81056;SDS011;70563;50.084;14.468;2023-06-14T14:13:33;3.63;;;2.75;;
81056;SDS011;70563;50.084;14.468;2023-06-14T14:15:58;6.07;;;2.58;;
81056;SDS011;70563;50.084;14.468;2023-06-14T14:18:24;7.43;;;2.95;;
81056;SDS011;70563;50.084;14.468;2023-06-14T14:20:50;6.47;;;3.45;;
81056;SDS011;70563;50.084;14.468;2023-06-14T14:23:15;3.85;;;2.75;;
81056;SDS011;70563;50.084;14.468;2023-06-14T14:25:41;5.22;;;3.05;;
81056;SDS011;70563;50.084;14.468;2023-06-14T14:28:07;4.75;;;2.85;;
81056;SDS011;70563;50.084;14.468;2023-06-14T14:30:32;5.28;;;3.15;;
81056;SDS011;70563;50.084;14.468;2023-06-14T14:32:58;5.00;;;3.17;;
81056;SDS011;70563;50.084;14.468;2023-06-14T14:35:24;5.68;;;3.00;;
81056;SDS011;70563;50.084;14.468;2023-06-14T14:37:51;5.32;;;2.95;;
81056;SDS011;70563;50.084;14.468;2023-06-14T14:40:16;4.07;;;2.70;;
81056;SDS011;70563;50.084;14.468;2023-06-14T14:42:42;4.97;;;3.05;;
81056;SDS011;70563;50.084;14.468;2023-06-14T14:45:07;3.58;;;2.88;;
81056;SDS011;70563;50.084;14.468;2023-06-14T14:47:33;5.05;;;2.63;;
81056;SDS011;70563;50.084;14.468;2023-06-14T14:49:58;3.47;;;2.75;;
81056;SDS011;70563;50.084;14.468;2023-06-14T14:52:24;7.43;;;3.05;;
81056;SDS011;70563;50.084;14.468;2023-06-14T14:54:50;4.60;;;2.85;;